This is the latest recevied weather packets stored in our database for station/object DK6MR. If no packets are shown the sender has not sent any weather packets the latest 10 day(s).
| Time | Temp. | Humidity | Pressure | Rain* | Wind** | Luminosity | Snow |
|---|---|---|---|---|---|---|---|
| 1777422940 | 8.33° C | 63% | 1021 hPa | 0 mm | - | - | - |
| 1777422040 | 8.89° C | 60% | 1021 hPa | 0 mm | - | - | - |
| 1777421139 | 8.89° C | 63% | 1021 hPa | 0 mm | - | - | - |
| 1777420238 | 8.89° C | 63% | 1021.3 hPa | 0 mm | - | - | - |
| 1777419337 | 9.44° C | 62% | 1021 hPa | 0 mm | - | - | - |
| 1777418436 | 10° C | 61% | 1021.3 hPa | 0 mm | - | - | - |
| 1777417535 | 10° C | 62% | 1021 hPa | 0 mm | - | - | - |
| 1777416635 | 10.56° C | 60% | 1021 hPa | 0 mm | - | - | - |
| 1777415734 | 11.11° C | 57% | 1021 hPa | 0 mm | - | - | - |
| 1777414833 | 11.67° C | 56% | 1021 hPa | 0 mm | - | - | - |
| 1777413932 | 12.78° C | 52% | 1020.6 hPa | 0 mm | - | - | - |
| 1777413031 | 12.22° C | 54% | 1020.6 hPa | 0 mm | - | - | - |
| 1777412130 | 12.78° C | 51% | 1020.3 hPa | 0 mm | - | - | - |
| 1777411229 | 13.89° C | 49% | 1020 hPa | 0 mm | - | - | - |
| 1777410328 | 13.89° C | 49% | 1020 hPa | 0 mm | - | - | - |
| 1777409427 | 15° C | 47% | 1019.6 hPa | 0 mm | - | - | - |
| 1777408526 | 15° C | 44% | 1019.3 hPa | 0 mm | - | - | - |
| 1777407626 | 15.56° C | 44% | 1019.3 hPa | 0 mm | - | - | - |
| 1777406725 | 15.56° C | 44% | 1019.3 hPa | 0 mm | - | - | - |
| 1777405824 | 16.11° C | 42% | 1019.3 hPa | 0 mm | - | - | - |
| 1777404923 | 16.67° C | 41% | 1018.9 hPa | 0 mm | - | - | - |
| 1777404022 | 16.67° C | 40% | 1018.6 hPa | 0 mm | - | - | - |
| 1777403121 | 17.22° C | 38% | 1018.6 hPa | 0 mm | - | - | - |
| 1777402220 | 17.22° C | 36% | 1018.3 hPa | 0 mm | - | - | - |
| 1777401319 | 17.78° C | 35% | 1018.3 hPa | 0 mm | - | - | - |
* Rain latest hour (hover to see other rain measurements)
** Current wind speed in m/s (hover to see current wind gust speed)